createdAt,value
2023-05-24T00:01:44.398Z,87.21
2023-05-24T00:04:12.944Z,87.63
2023-05-24T00:06:43.099Z,86.98
2023-05-24T00:09:12.512Z,85.98
2023-05-24T00:11:40.988Z,86.64
2023-05-24T00:14:49.293Z,89.31
2023-05-24T00:21:30.027Z,89.51
2023-05-24T00:23:58.375Z,87.98
2023-05-24T00:26:27.070Z,87.74
2023-05-24T00:28:56.925Z,87.46
2023-05-24T00:31:25.497Z,86.90
2023-05-24T00:33:54.010Z,88.52
2023-05-24T00:36:22.364Z,88.58
2023-05-24T00:39:30.868Z,86.90
2023-05-24T00:42:39.372Z,87.56
2023-05-24T00:45:53.359Z,86.84
2023-05-24T00:49:01.646Z,86.80
2023-05-24T00:52:09.938Z,88.38
2023-05-24T00:58:55.466Z,87.33
2023-05-24T01:02:03.696Z,87.08
2023-05-24T01:05:12.628Z,87.01
2023-05-24T01:07:50.818Z,86.50
2023-05-24T01:10:39.522Z,86.09
2023-05-24T01:17:19.456Z,86.99
2023-05-24T01:19:54.537Z,87.52
2023-05-24T01:22:23.179Z,87.49
2023-05-24T01:25:05.086Z,87.32
2023-05-24T01:27:34.795Z,86.83
2023-05-24T01:30:04.716Z,87.02
2023-05-24T01:32:33.426Z,87.08
2023-05-24T01:35:01.985Z,87.71
2023-05-24T01:37:30.481Z,87.73
2023-05-24T01:39:59.215Z,87.33
2023-05-24T01:42:31.221Z,88.16
2023-05-24T01:45:03.798Z,88.29
2023-05-24T01:47:32.192Z,88.01
2023-05-24T01:50:40.568Z,88.89
2023-05-24T01:53:48.899Z,88.57
2023-05-24T01:56:57.651Z,90.04
2023-05-24T02:00:06.060Z,89.98
2023-05-24T02:03:21.141Z,91.11
2023-05-24T02:06:29.542Z,90.51
2023-05-24T02:12:55.287Z,90.50
2023-05-24T02:15:23.699Z,90.51
2023-05-24T02:17:54.827Z,90.36
2023-05-24T02:20:24.434Z,90.92
2023-05-24T02:22:53.213Z,92.22
2023-05-24T02:25:21.700Z,91.95
2023-05-24T02:28:29.951Z,91.54
2023-05-24T02:31:38.702Z,90.65
2023-05-24T02:34:47.158Z,91.31
2023-05-24T02:37:55.906Z,91.30
2023-05-24T02:41:04.051Z,90.57
2023-05-24T02:43:33.381Z,89.78
2023-05-24T02:46:01.601Z,89.59
2023-05-24T02:49:09.841Z,89.27
2023-05-24T02:52:18.204Z,90.71
2023-05-24T02:55:26.725Z,92.63
2023-05-24T02:58:36.169Z,91.44
2023-05-24T03:01:44.594Z,91.72
2023-05-24T03:04:53.217Z,91.24
2023-05-24T03:08:01.431Z,90.40
2023-05-24T03:11:09.651Z,90.24
2023-05-24T03:17:50.152Z,90.14
2023-05-24T03:20:18.447Z,90.66
2023-05-24T03:22:47.503Z,90.83
2023-05-24T03:25:17.215Z,91.14
2023-05-24T03:27:46.236Z,91.53
2023-05-24T03:30:54.669Z,91.30
2023-05-24T03:33:23.217Z,91.22
2023-05-24T03:35:51.796Z,91.39
2023-05-24T03:39:00.257Z,91.46
2023-05-24T03:42:08.544Z,92.58
2023-05-24T03:45:21.649Z,92.31
2023-05-24T03:48:39.300Z,92.53
2023-05-24T03:51:53.358Z,93.01
2023-05-24T03:54:21.883Z,94.15
2023-05-24T03:57:30.145Z,95.02
2023-05-24T04:00:00.573Z,95.83
2023-05-24T04:02:29.249Z,95.83
2023-05-24T04:04:58.202Z,95.72
2023-05-24T04:07:26.684Z,95.33
2023-05-24T04:09:54.767Z,94.50
2023-05-24T04:12:23.038Z,94.64
2023-05-24T04:14:52.193Z,95.29
2023-05-24T04:17:25.146Z,95.07
2023-05-24T04:19:54.318Z,94.45
2023-05-24T04:22:23.782Z,94.38
2023-05-24T04:24:54.168Z,94.59
2023-05-24T04:27:22.894Z,94.08
2023-05-24T04:29:53.428Z,93.25
2023-05-24T04:32:22.127Z,93.13
2023-05-24T04:35:30.366Z,92.15
2023-05-24T04:38:36.693Z,92.25
2023-05-24T04:41:50.114Z,92.82
2023-05-24T04:44:18.520Z,91.14
2023-05-24T04:46:47.246Z,90.61
2023-05-24T04:49:15.889Z,89.85
2023-05-24T04:51:44.677Z,88.51
2023-05-24T04:54:13.113Z,88.17
2023-05-24T04:57:21.474Z,87.14
2023-05-24T04:59:50.161Z,85.91
2023-05-24T05:02:18.949Z,85.17
2023-05-24T05:04:47.433Z,83.91
2023-05-24T05:07:16.152Z,82.90
2023-05-24T05:09:44.420Z,82.42
2023-05-24T05:12:13.496Z,81.74
2023-05-24T05:14:42.282Z,81.60
2023-05-24T05:17:10.866Z,79.53
2023-05-24T05:19:39.242Z,78.78
2023-05-24T05:22:07.937Z,78.63
2023-05-24T05:24:36.138Z,77.74
2023-05-24T05:27:44.369Z,77.05
2023-05-24T05:30:53.623Z,75.23
2023-05-24T05:37:34.116Z,73.27
2023-05-24T05:40:02.876Z,73.49
2023-05-24T05:42:31.439Z,72.06
2023-05-24T05:44:59.921Z,71.35
2023-05-24T05:47:28.236Z,71.20
2023-05-24T05:49:56.687Z,69.81
2023-05-24T05:52:25.267Z,68.98
2023-05-24T05:54:53.645Z,67.63
2023-05-24T05:57:24.716Z,68.43
2023-05-24T05:59:53.475Z,67.61
2023-05-24T06:02:24.680Z,66.08
2023-05-24T06:04:53.422Z,65.61
2023-05-24T06:07:22.096Z,64.94
2023-05-24T06:09:50.498Z,63.30
2023-05-24T06:12:19.117Z,63.13
2023-05-24T06:14:51.023Z,62.38
2023-05-24T06:17:19.411Z,62.88
2023-05-24T06:19:47.994Z,61.57
2023-05-24T06:22:16.888Z,60.93
2023-05-24T06:24:45.269Z,60.56
2023-05-24T06:27:14.123Z,61.50
2023-05-24T06:29:42.755Z,60.30
2023-05-24T06:32:11.532Z,59.03
2023-05-24T06:34:39.930Z,59.92
2023-05-24T06:37:10.860Z,57.23
2023-05-24T06:39:39.377Z,58.35
2023-05-24T06:42:47.963Z,56.62
2023-05-24T06:45:16.754Z,54.99
2023-05-24T06:47:45.713Z,54.65
2023-05-24T06:50:14.955Z,56.11
2023-05-24T06:53:23.267Z,55.58
2023-05-24T06:55:51.956Z,54.09
2023-05-24T06:58:20.548Z,53.70
2023-05-24T07:00:49.040Z,53.49
2023-05-24T07:03:17.714Z,51.54
2023-05-24T07:05:46.027Z,52.42
2023-05-24T07:08:59.322Z,52.98
2023-05-24T07:12:09.094Z,50.50
2023-05-24T07:15:14.486Z,49.95
2023-05-24T07:18:19.313Z,49.84
2023-05-24T07:20:48.113Z,48.31
2023-05-24T07:23:16.825Z,48.01
2023-05-24T07:29:37.259Z,48.70
2023-05-24T07:32:42.590Z,46.73
2023-05-24T07:35:13.251Z,47.95
2023-05-24T07:37:42.250Z,47.98
2023-05-24T07:40:12.101Z,46.59
2023-05-24T07:42:40.479Z,46.65
2023-05-24T07:45:10.870Z,44.60
2023-05-24T07:47:39.260Z,44.51
2023-05-24T07:50:47.934Z,45.07
2023-05-24T07:53:56.067Z,44.62
2023-05-24T07:57:06.715Z,43.73
2023-05-24T07:59:37.186Z,43.83
2023-05-24T08:02:06.284Z,44.31
2023-05-24T08:04:35.273Z,45.19
2023-05-24T08:07:05.395Z,44.61
2023-05-24T08:09:38.688Z,45.93
2023-05-24T08:12:07.591Z,45.15
2023-05-24T08:14:36.113Z,43.35
2023-05-24T08:17:04.777Z,44.01
2023-05-24T08:19:36.057Z,44.64
2023-05-24T08:22:05.097Z,43.27
2023-05-24T08:25:13.318Z,43.05
2023-05-24T08:28:22.013Z,42.84
2023-05-24T08:30:50.944Z,42.42
2023-05-24T08:33:19.819Z,41.95
2023-05-24T08:35:49.636Z,38.72
2023-05-24T08:38:18.646Z,39.49
2023-05-24T08:40:48.551Z,37.52
2023-05-24T08:43:17.237Z,38.43
2023-05-24T08:45:46.149Z,38.58
2023-05-24T08:48:15.767Z,37.94
2023-05-24T08:50:45.256Z,37.47
2023-05-24T08:53:14.964Z,35.79
2023-05-24T08:55:44.386Z,34.87
2023-05-24T08:58:13.671Z,34.96
2023-05-24T09:00:42.055Z,37.13
2023-05-24T09:03:10.717Z,37.52
2023-05-24T09:05:40.762Z,37.50
2023-05-24T09:08:10.475Z,36.28
2023-05-24T09:10:52.974Z,37.77
2023-05-24T09:13:27.097Z,38.37
2023-05-24T09:15:55.564Z,35.75
2023-05-24T09:18:24.041Z,35.93
2023-05-24T09:20:53.321Z,35.93
2023-05-24T09:23:22.838Z,35.30
2023-05-24T09:25:50.956Z,35.12
2023-05-24T09:28:19.733Z,32.73
2023-05-24T09:31:07.362Z,33.34
2023-05-24T09:33:36.999Z,31.08
2023-05-24T09:36:07.005Z,34.76
2023-05-24T09:39:15.016Z,34.91
2023-05-24T09:41:44.354Z,33.85
2023-05-24T09:44:16.077Z,33.90
2023-05-24T09:46:45.275Z,32.55
2023-05-24T09:49:13.844Z,33.07
2023-05-24T09:51:43.071Z,34.25
2023-05-24T09:54:12.873Z,33.02
2023-05-24T09:56:41.058Z,34.11
2023-05-24T09:59:10.301Z,33.35
2023-05-24T10:01:39.195Z,34.62
2023-05-24T10:06:57.207Z,33.17
2023-05-24T10:09:26.704Z,32.87
2023-05-24T10:11:54.982Z,34.43
2023-05-24T10:14:25.743Z,35.53
2023-05-24T10:16:54.536Z,36.29
2023-05-24T10:19:23.709Z,35.14
2023-05-24T10:21:54.079Z,35.94
2023-05-24T10:24:24.732Z,35.15
2023-05-24T10:26:54.577Z,32.99
2023-05-24T10:29:36.933Z,32.91
2023-05-24T10:32:05.875Z,33.23
2023-05-24T10:34:34.874Z,31.59
2023-05-24T10:37:03.559Z,31.86
2023-05-24T10:39:33.680Z,33.06
2023-05-24T10:41:46.546Z,34.30
2023-05-24T10:42:09.531Z,34.69
2023-05-24T10:44:38.536Z,33.80
2023-05-24T10:47:13.871Z,33.67
2023-05-24T10:49:53.225Z,32.65
2023-05-24T10:52:21.906Z,32.00
2023-05-24T10:55:08.344Z,31.49
2023-05-24T10:57:37.505Z,32.56
2023-05-24T11:00:34.689Z,32.41
2023-05-24T11:03:04.624Z,31.55
2023-05-24T11:05:34.630Z,31.85
2023-05-24T11:08:04.418Z,31.41
2023-05-24T11:10:33.409Z,30.82
2023-05-24T11:13:02.765Z,29.31
2023-05-24T11:15:31.169Z,30.54
2023-05-24T11:18:14.955Z,30.97
2023-05-24T11:20:45.565Z,32.58
2023-05-24T11:23:15.731Z,32.36
2023-05-24T11:25:45.504Z,30.96
2023-05-24T11:28:14.160Z,28.79
2023-05-24T11:30:43.973Z,28.93
2023-05-24T11:33:20.280Z,29.25
2023-05-24T11:35:50.807Z,27.71
2023-05-24T11:38:22.236Z,27.45
2023-05-24T11:40:52.745Z,27.00
2023-05-24T11:43:22.396Z,28.61
2023-05-24T11:45:51.996Z,29.39
2023-05-24T11:48:20.982Z,29.06
2023-05-24T11:50:50.364Z,29.10
2023-05-24T11:54:03.909Z,30.40
2023-05-24T11:57:11.991Z,28.87
2023-05-24T12:00:20.149Z,28.88
2023-05-24T12:03:28.555Z,29.33
2023-05-24T12:10:09.428Z,28.54
2023-05-24T12:13:17.666Z,29.90
2023-05-24T12:16:26.139Z,29.98
2023-05-24T12:19:05.372Z,32.21
2023-05-24T12:21:36.821Z,30.82
2023-05-24T12:24:51.169Z,29.89
2023-05-24T12:27:36.754Z,28.47
2023-05-24T12:30:48.349Z,26.42
2023-05-24T12:33:19.090Z,26.00
2023-05-24T12:36:27.463Z,27.24
2023-05-24T12:43:08.104Z,27.35
2023-05-24T12:45:37.431Z,27.32
2023-05-24T12:48:06.388Z,27.88
2023-05-24T12:50:35.431Z,28.53
2023-05-24T12:53:04.080Z,28.82
2023-05-24T12:55:32.609Z,30.42
2023-05-24T12:58:41.081Z,28.81
2023-05-24T13:01:49.226Z,28.55
2023-05-24T13:04:57.860Z,30.28
2023-05-24T13:07:26.260Z,28.53
2023-05-24T13:09:55.101Z,28.03
2023-05-24T13:13:03.274Z,27.14
2023-05-24T13:16:11.675Z,26.70
2023-05-24T13:19:20.055Z,26.16
2023-05-24T13:22:28.365Z,25.81
2023-05-24T13:24:56.952Z,25.56
2023-05-24T13:27:26.783Z,24.37
2023-05-24T13:30:00.630Z,24.67
2023-05-24T13:32:32.114Z,23.89
2023-05-24T13:35:01.226Z,23.58
2023-05-24T13:37:30.220Z,25.64
2023-05-24T13:39:58.943Z,24.01
2023-05-24T13:42:27.839Z,23.73
2023-05-24T13:44:58.104Z,24.26
2023-05-24T13:47:38.798Z,24.90
2023-05-24T13:50:49.807Z,23.44
2023-05-24T13:53:58.399Z,24.08
2023-05-24T13:56:45.076Z,23.84
2023-05-24T13:59:33.972Z,24.15
2023-05-24T14:02:02.694Z,25.39
2023-05-24T14:04:31.561Z,26.13
2023-05-24T14:07:40.007Z,26.56
2023-05-24T14:10:48.593Z,26.28
2023-05-24T14:16:28.704Z,26.76
2023-05-24T14:18:57.052Z,26.06
2023-05-24T14:21:27.577Z,26.45
2023-05-24T14:23:57.088Z,26.53
2023-05-24T14:26:25.690Z,26.27
2023-05-24T14:28:56.327Z,27.17
2023-05-24T14:31:25.752Z,25.73
2023-05-24T14:33:54.096Z,26.16
2023-05-24T14:36:22.592Z,26.79
2023-05-24T14:38:51.275Z,26.12
2023-05-24T14:41:19.781Z,26.28
2023-05-24T14:43:48.308Z,25.80
2023-05-24T14:46:16.860Z,26.47
2023-05-24T14:48:45.243Z,26.36
2023-05-24T14:51:13.783Z,26.34
2023-05-24T14:53:42.367Z,26.79
2023-05-24T15:00:24.119Z,26.45
2023-05-24T15:03:34.088Z,26.92
2023-05-24T15:06:42.908Z,27.38
2023-05-24T15:09:56.696Z,28.38
2023-05-24T15:13:05.032Z,27.25
2023-05-24T15:16:15.819Z,27.55
2023-05-24T15:19:24.135Z,28.93
2023-05-24T15:22:32.347Z,28.75
2023-05-24T15:25:01.082Z,29.14
2023-05-24T15:27:29.371Z,30.15
2023-05-24T15:30:37.620Z,30.13
2023-05-24T15:33:45.959Z,30.99
2023-05-24T15:36:17.521Z,30.73
2023-05-24T15:38:46.206Z,31.23
2023-05-24T15:41:54.443Z,32.24
2023-05-24T15:45:08.064Z,33.40
2023-05-24T15:48:16.414Z,33.05
2023-05-24T15:52:01.696Z,31.30
2023-05-24T15:54:53.056Z,31.53
2023-05-24T15:58:01.259Z,31.92
2023-05-24T16:01:09.469Z,31.61
2023-05-24T16:04:17.889Z,31.88
2023-05-24T16:07:26.333Z,32.09
2023-05-24T16:10:34.826Z,31.00
2023-05-24T16:13:43.021Z,31.53
2023-05-24T16:16:51.464Z,34.45
2023-05-24T16:19:20.083Z,34.24
2023-05-24T16:21:48.972Z,34.66
2023-05-24T16:24:17.249Z,36.35
2023-05-24T16:26:45.836Z,38.52
2023-05-24T16:29:16.872Z,41.05
2023-05-24T16:31:45.398Z,42.86
2023-05-24T16:34:14.071Z,44.78
2023-05-24T16:36:46.031Z,46.02
2023-05-24T16:39:14.704Z,47.11
2023-05-24T16:41:43.186Z,48.70
2023-05-24T16:44:18.064Z,49.67
2023-05-24T16:46:46.823Z,49.87
2023-05-24T16:49:15.537Z,50.33
2023-05-24T16:51:44.074Z,50.81
2023-05-24T16:54:12.667Z,50.88
2023-05-24T16:56:41.368Z,50.37
2023-05-24T16:59:09.749Z,50.90
2023-05-24T17:01:38.780Z,51.83
2023-05-24T17:07:40.925Z,52.75
2023-05-24T17:10:49.451Z,52.59
2023-05-24T17:13:18.134Z,54.97
2023-05-24T17:15:46.954Z,54.99
2023-05-24T17:18:15.306Z,57.70
2023-05-24T17:20:44.401Z,57.35
2023-05-24T17:23:13.180Z,59.26
2023-05-24T17:25:41.364Z,60.98
2023-05-24T17:28:09.826Z,62.17
2023-05-24T17:31:18.220Z,63.11
2023-05-24T17:34:26.891Z,62.60
2023-05-24T17:36:55.389Z,63.65
2023-05-24T17:39:24.062Z,63.45
2023-05-24T17:41:52.528Z,63.20
2023-05-24T17:44:21.130Z,62.78
2023-05-24T17:46:49.677Z,62.21
2023-05-24T17:49:18.302Z,62.70
2023-05-24T17:51:46.779Z,62.55
2023-05-24T17:55:00.832Z,63.08
2023-05-24T17:58:08.941Z,63.36
2023-05-24T18:01:14.296Z,64.61
2023-05-24T18:03:43.068Z,66.08
2023-05-24T18:06:11.810Z,66.19
2023-05-24T18:08:44.031Z,66.35
2023-05-24T18:11:13.914Z,66.05
2023-05-24T18:13:42.743Z,66.86
2023-05-24T18:16:11.722Z,66.02
2023-05-24T18:18:41.501Z,66.65
2023-05-24T18:21:10.152Z,65.43
2023-05-24T18:23:39.042Z,65.02
2023-05-24T18:26:47.502Z,64.45
2023-05-24T18:33:28.119Z,65.67
2023-05-24T18:35:56.485Z,66.87
2023-05-24T18:38:25.015Z,67.59
2023-05-24T18:40:53.806Z,69.55
2023-05-24T18:43:22.491Z,69.42
2023-05-24T18:45:51.393Z,67.81
2023-05-24T18:48:19.937Z,67.16
2023-05-24T18:50:50.144Z,66.75
2023-05-24T18:53:19.205Z,66.24
2023-05-24T18:55:47.989Z,67.78
2023-05-24T18:58:16.631Z,68.03
2023-05-24T19:00:45.186Z,67.66
2023-05-24T19:03:14.108Z,68.05
2023-05-24T19:05:44.009Z,69.58
2023-05-24T19:08:12.852Z,70.27
2023-05-24T19:10:41.945Z,69.55
2023-05-24T19:13:10.629Z,69.05
2023-05-24T19:15:38.987Z,69.54
2023-05-24T19:18:47.443Z,69.25
2023-05-24T19:21:16.226Z,68.58
2023-05-24T19:23:44.657Z,68.86
2023-05-24T19:26:13.501Z,68.69
2023-05-24T19:28:42.489Z,69.61
2023-05-24T19:31:11.118Z,69.99
2023-05-24T19:33:52.033Z,71.55
2023-05-24T19:36:28.966Z,70.91
2023-05-24T19:38:57.203Z,71.82
2023-05-24T19:41:26.983Z,72.27
2023-05-24T19:43:56.427Z,71.61
2023-05-24T19:46:25.465Z,70.74
2023-05-24T19:48:53.907Z,71.31
2023-05-24T19:51:22.689Z,74.72
2023-05-24T19:53:51.490Z,76.38
2023-05-24T19:56:21.023Z,76.94
2023-05-24T19:58:50.282Z,78.37
2023-05-24T20:01:18.998Z,78.64
2023-05-24T20:03:49.037Z,81.88
2023-05-24T20:06:18.294Z,82.07
2023-05-24T20:09:26.825Z,81.80
2023-05-24T20:16:07.441Z,77.84
2023-05-24T20:19:15.524Z,76.84
2023-05-24T20:22:24.336Z,78.86
2023-05-24T20:24:52.638Z,79.73
2023-05-24T20:27:21.570Z,78.16
2023-05-24T20:29:49.999Z,77.65
2023-05-24T20:32:18.388Z,77.36
2023-05-24T20:34:47.073Z,77.20
2023-05-24T20:37:15.534Z,77.08
2023-05-24T20:39:44.446Z,76.70
2023-05-24T20:42:12.931Z,76.79
2023-05-24T20:44:41.417Z,77.06
2023-05-24T20:47:10.096Z,79.22
2023-05-24T20:49:38.793Z,79.31
2023-05-24T20:52:07.499Z,80.78
2023-05-24T20:54:36.373Z,80.60
2023-05-24T20:57:05.378Z,80.89
2023-05-24T20:59:33.742Z,81.48
2023-05-24T21:02:02.067Z,81.72
2023-05-24T21:04:31.116Z,81.64
2023-05-24T21:06:59.297Z,82.69
2023-05-24T21:09:27.818Z,84.57
2023-05-24T21:11:56.358Z,84.34
2023-05-24T21:14:25.731Z,87.36
2023-05-24T21:16:55.041Z,86.63
2023-05-24T21:19:23.443Z,84.51
2023-05-24T21:21:51.726Z,83.40
2023-05-24T21:24:20.833Z,82.77
2023-05-24T21:26:49.346Z,82.37
2023-05-24T21:29:17.678Z,81.99
2023-05-24T21:31:46.614Z,83.74
2023-05-24T21:34:15.271Z,83.79
2023-05-24T21:36:43.535Z,85.63
2023-05-24T21:39:12.533Z,86.87
2023-05-24T21:41:41.113Z,86.12
2023-05-24T21:44:09.699Z,85.83
2023-05-24T21:46:38.316Z,84.98
2023-05-24T21:49:06.871Z,84.33
2023-05-24T21:51:35.458Z,85.81
2023-05-24T21:54:04.029Z,86.24
2023-05-24T21:56:32.733Z,89.41
2023-05-24T21:59:01.158Z,87.77
2023-05-24T22:01:30.376Z,86.39
2023-05-24T22:03:59.533Z,86.02
2023-05-24T22:06:27.902Z,85.41
2023-05-24T22:09:02.173Z,84.36
2023-05-24T22:11:30.994Z,84.21
2023-05-24T22:13:59.501Z,83.64
2023-05-24T22:16:28.189Z,83.29
2023-05-24T22:18:56.769Z,82.81
2023-05-24T22:21:26.463Z,81.59
2023-05-24T22:23:54.879Z,81.17
2023-05-24T22:26:24.549Z,81.24
2023-05-24T22:28:53.640Z,80.81
2023-05-24T22:31:22.833Z,80.74
2023-05-24T22:33:51.585Z,81.64
2023-05-24T22:36:21.143Z,83.88
2023-05-24T22:38:49.636Z,82.55
2023-05-24T22:41:18.314Z,81.59
2023-05-24T22:43:46.641Z,81.71
2023-05-24T22:46:15.215Z,81.30
2023-05-24T22:48:43.866Z,81.16
2023-05-24T22:51:12.389Z,81.07
2023-05-24T22:53:40.931Z,82.11
2023-05-24T22:56:10.726Z,82.71
2023-05-24T22:58:39.545Z,82.33
2023-05-24T23:01:07.871Z,82.24
2023-05-24T23:03:36.286Z,83.21
2023-05-24T23:06:05.821Z,83.88
2023-05-24T23:08:34.387Z,84.01
2023-05-24T23:11:10.399Z,86.44
2023-05-24T23:13:42.573Z,87.85
2023-05-24T23:16:12.747Z,87.09
2023-05-24T23:18:43.157Z,87.78
2023-05-24T23:21:12.263Z,86.73
2023-05-24T23:23:41.210Z,86.58
2023-05-24T23:26:09.735Z,86.67
2023-05-24T23:28:38.136Z,86.34
2023-05-24T23:31:06.831Z,86.21
2023-05-24T23:33:35.181Z,86.17
2023-05-24T23:36:03.664Z,86.31
2023-05-24T23:38:32.417Z,86.61
2023-05-24T23:41:00.837Z,87.01
2023-05-24T23:43:29.564Z,87.60
2023-05-24T23:45:58.313Z,86.28
2023-05-24T23:48:26.848Z,85.65
2023-05-24T23:50:55.281Z,85.06
2023-05-24T23:53:23.869Z,85.50
2023-05-24T23:55:52.346Z,85.53
2023-05-24T23:58:21.200Z,84.76
